Raleigh, NC (27603)

8:04 PM EST en Noviembre 23, 2014 (GMT -0500)
Colonial Heights | Change Station
CLOSE
Current Station
Estación meteorológica personal
Location: Raleigh, NC
Altura: 305 ft
Estaciones meteorológicas cercanas

Alt 305 ft 35.69 °N, 78.67 °W | Updated 30 seconds ago

Lluvia
Lluvia
59.7 ° F
Sensación térmica 59.7 ° F
N
4.0
Viento Variable Viento desde SE
Gusts 7.0 mph

Hoy
Alta -- | Baja -- ° F
--% Posibilidad de precipitaciones
Ayer
Alta -- | Baja -- ° F
Precip. -- pul
6:58 AM 5:03 PM
Creciente, 3% visible
Presión 29.90 pul
Visibilidad 4.0 Millas
Nubes Nublado 600 ft
Punto de rocío 59 ° F
Humedad 99%
Precipitaciones 0.00 pul
Espesor de la nieve No disponible.
UV 0 de una escala de 12
Polen .30 de una escala de 12
Calidad del aire No disponible.
Flu Activity No disponible.
METAR KRDU 240051Z 13007KT 4SM -RA BR OVC006 14/13 A2990 RMK AO2 SLP123 P0011 T01440128 $

More Conditions Fewer Conditions

Presión 29.90 pul
Visibilidad 4.0 Millas
Nubes Nublado 600 ft
Punto de rocío 59 ° F
Humedad 99%
Precipitaciones 0.00 pul
Espesor de la nieve No disponible.
UV 0 de una escala de 12
Polen .30 de una escala de 12
Calidad del aire No disponible.
Flu Activity No disponible.
METAR KRDU 240051Z 13007KT 4SM -RA BR OVC006 14/13 A2990 RMK AO2 SLP123 P0011 T01440128 $

More Conditions Fewer Conditions

10-Day Weather Forecast

Almanac

Astronomía

Nov. 23, 2014 Salida Puesta
Hora real
Crepúsculo civil
Crepúsculo náutico
Crepúsculo astronómico
Luna
Horas de luz
Horas de luz
Tomorrow will be .
, % of the Moon is Illuminated

Extremos de hoy

Máximos del estado Bajos del estado

Community

WunderPhotos

Upload Photos

1,773,232 ¡fotos cargadas!

WunderBlogs® & News

Nearby

Calidad del aire

  Calidad del aire Índice AQ Contaminante
Not available.

Grosos de nieve

Estación Profundido Altura

Actividad de terremotos

Ciudad Distance Mag. Tiempo y dato
Magnitud mínima muestra es 2,5.

Temperaturas de aguas costeras

Lugar Temperatura

Estaciones meteorológicas cercanas